sensor_id;sensor_type;location;lat;lon;timestamp;temperature;humidity
66576;SHT31;53428;47.686;16.584;2023-07-09T00:04:37;19.94;77.30
66576;SHT31;53428;47.686;16.584;2023-07-09T00:09:36;19.81;77.69
66576;SHT31;53428;47.686;16.584;2023-07-09T00:14:36;19.80;77.90
66576;SHT31;53428;47.686;16.584;2023-07-09T00:19:35;19.76;78.06
66576;SHT31;53428;47.686;16.584;2023-07-09T00:24:34;19.67;78.37
66576;SHT31;53428;47.686;16.584;2023-07-09T00:29:34;19.69;78.48
66576;SHT31;53428;47.686;16.584;2023-07-09T00:34:33;19.65;78.75
66576;SHT31;53428;47.686;16.584;2023-07-09T00:39:32;19.51;79.19
66576;SHT31;53428;47.686;16.584;2023-07-09T00:44:32;19.42;79.84
66576;SHT31;53428;47.686;16.584;2023-07-09T00:49:35;19.31;80.26
66576;SHT31;53428;47.686;16.584;2023-07-09T00:54:38;19.26;80.49
66576;SHT31;53428;47.686;16.584;2023-07-09T00:59:41;19.05;80.87
66576;SHT31;53428;47.686;16.584;2023-07-09T01:04:41;19.05;81.25
66576;SHT31;53428;47.686;16.584;2023-07-09T01:09:41;18.90;81.64
66576;SHT31;53428;47.686;16.584;2023-07-09T01:14:40;18.88;81.72
66576;SHT31;53428;47.686;16.584;2023-07-09T01:19:43;18.74;82.10
66576;SHT31;53428;47.686;16.584;2023-07-09T01:25:11;18.53;82.62
66576;SHT31;53428;47.686;16.584;2023-07-09T01:30:16;18.35;83.57
66576;SHT31;53428;47.686;16.584;2023-07-09T01:35:18;18.28;83.87
66576;SHT31;53428;47.686;16.584;2023-07-09T01:40:20;18.05;84.50
66576;SHT31;53428;47.686;16.584;2023-07-09T01:45:21;18.02;84.73
66576;SHT31;53428;47.686;16.584;2023-07-09T01:50:21;18.09;84.63
66576;SHT31;53428;47.686;16.584;2023-07-09T01:55:23;18.06;84.78
66576;SHT31;53428;47.686;16.584;2023-07-09T02:00:22;17.99;85.07
66576;SHT31;53428;47.686;16.584;2023-07-09T02:05:21;17.87;85.46
66576;SHT31;53428;47.686;16.584;2023-07-09T02:10:21;17.82;85.71
66576;SHT31;53428;47.686;16.584;2023-07-09T02:15:20;17.80;85.98
66576;SHT31;53428;47.686;16.584;2023-07-09T02:20:20;17.73;86.18
66576;SHT31;53428;47.686;16.584;2023-07-09T02:25:19;17.70;86.43
66576;SHT31;53428;47.686;16.584;2023-07-09T02:30:19;17.77;86.15
66576;SHT31;53428;47.686;16.584;2023-07-09T02:35:18;17.77;86.26
66576;SHT31;53428;47.686;16.584;2023-07-09T02:40:18;17.71;86.43
66576;SHT31;53428;47.686;16.584;2023-07-09T02:45:17;17.77;86.42
66576;SHT31;53428;47.686;16.584;2023-07-09T02:50:17;17.74;86.53
66576;SHT31;53428;47.686;16.584;2023-07-09T02:55:16;17.64;86.82
66576;SHT31;53428;47.686;16.584;2023-07-09T03:00:16;17.55;87.29
66576;SHT31;53428;47.686;16.584;2023-07-09T03:05:15;17.49;87.46
66576;SHT31;53428;47.686;16.584;2023-07-09T03:10:15;17.51;87.34
66576;SHT31;53428;47.686;16.584;2023-07-09T03:15:15;17.40;87.68
66576;SHT31;53428;47.686;16.584;2023-07-09T03:20:14;17.39;87.74
66576;SHT31;53428;47.686;16.584;2023-07-09T03:25:13;17.43;87.54
66576;SHT31;53428;47.686;16.584;2023-07-09T03:30:13;17.47;87.27
66576;SHT31;53428;47.686;16.584;2023-07-09T03:35:12;17.47;87.29
66576;SHT31;53428;47.686;16.584;2023-07-09T03:40:21;17.54;87.08
66576;SHT31;53428;47.686;16.584;2023-07-09T03:45:21;17.54;87.07
66576;SHT31;53428;47.686;16.584;2023-07-09T03:50:20;17.59;86.87
66576;SHT31;53428;47.686;16.584;2023-07-09T03:55:20;17.66;86.75
66576;SHT31;53428;47.686;16.584;2023-07-09T04:00:20;17.71;86.32
66576;SHT31;53428;47.686;16.584;2023-07-09T04:05:19;17.78;86.00
66576;SHT31;53428;47.686;16.584;2023-07-09T04:10:19;17.80;86.07
66576;SHT31;53428;47.686;16.584;2023-07-09T04:15:18;17.91;85.85
66576;SHT31;53428;47.686;16.584;2023-07-09T04:20:17;18.01;85.92
66576;SHT31;53428;47.686;16.584;2023-07-09T04:25:17;18.22;85.33
66576;SHT31;53428;47.686;16.584;2023-07-09T04:30:17;18.15;85.37
66576;SHT31;53428;47.686;16.584;2023-07-09T04:35:16;18.21;85.35
66576;SHT31;53428;47.686;16.584;2023-07-09T04:40:17;18.42;84.76
66576;SHT31;53428;47.686;16.584;2023-07-09T04:45:17;18.71;84.26
66576;SHT31;53428;47.686;16.584;2023-07-09T04:50:16;18.87;83.80
66576;SHT31;53428;47.686;16.584;2023-07-09T04:55:15;19.18;83.44
66576;SHT31;53428;47.686;16.584;2023-07-09T05:00:18;19.31;83.38
66576;SHT31;53428;47.686;16.584;2023-07-09T05:05:17;19.63;82.70
66576;SHT31;53428;47.686;16.584;2023-07-09T05:10:18;19.86;82.25
66576;SHT31;53428;47.686;16.584;2023-07-09T05:15:18;20.08;81.91
66576;SHT31;53428;47.686;16.584;2023-07-09T05:20:18;20.35;81.35
66576;SHT31;53428;47.686;16.584;2023-07-09T05:25:17;20.69;80.70
66576;SHT31;53428;47.686;16.584;2023-07-09T05:30:20;20.85;79.37
66576;SHT31;53428;47.686;16.584;2023-07-09T05:35:19;21.26;77.29
66576;SHT31;53428;47.686;16.584;2023-07-09T05:40:19;21.54;77.23
66576;SHT31;53428;47.686;16.584;2023-07-09T05:45:18;21.71;76.53
66576;SHT31;53428;47.686;16.584;2023-07-09T05:50:17;21.79;76.13
66576;SHT31;53428;47.686;16.584;2023-07-09T05:55:17;21.95;75.87
66576;SHT31;53428;47.686;16.584;2023-07-09T06:00:16;22.09;74.67
66576;SHT31;53428;47.686;16.584;2023-07-09T06:05:15;22.17;74.96
66576;SHT31;53428;47.686;16.584;2023-07-09T06:10:15;22.46;73.67
66576;SHT31;53428;47.686;16.584;2023-07-09T06:15:15;22.77;72.71
66576;SHT31;53428;47.686;16.584;2023-07-09T06:20:14;23.01;72.77
66576;SHT31;53428;47.686;16.584;2023-07-09T06:25:14;23.30;71.72
66576;SHT31;53428;47.686;16.584;2023-07-09T06:30:14;23.60;69.82
66576;SHT31;53428;47.686;16.584;2023-07-09T06:35:13;23.62;69.03
66576;SHT31;53428;47.686;16.584;2023-07-09T06:40:12;23.75;68.58
66576;SHT31;53428;47.686;16.584;2023-07-09T06:45:11;23.94;68.21
66576;SHT31;53428;47.686;16.584;2023-07-09T06:50:12;24.29;67.59
66576;SHT31;53428;47.686;16.584;2023-07-09T06:55:11;24.26;65.70
66576;SHT31;53428;47.686;16.584;2023-07-09T07:00:35;24.47;64.38
66576;SHT31;53428;47.686;16.584;2023-07-09T07:05:45;24.69;64.50
66576;SHT31;53428;47.686;16.584;2023-07-09T07:10:45;24.67;63.34
66576;SHT31;53428;47.686;16.584;2023-07-09T07:15:48;25.00;63.79
66576;SHT31;53428;47.686;16.584;2023-07-09T07:20:50;25.08;63.57
66576;SHT31;53428;47.686;16.584;2023-07-09T07:25:50;25.25;63.17
66576;SHT31;53428;47.686;16.584;2023-07-09T07:31:04;25.34;63.44
66576;SHT31;53428;47.686;16.584;2023-07-09T07:36:05;25.45;63.10
66576;SHT31;53428;47.686;16.584;2023-07-09T07:41:04;25.61;62.78
66576;SHT31;53428;47.686;16.584;2023-07-09T07:46:03;25.97;61.88
66576;SHT31;53428;47.686;16.584;2023-07-09T07:51:03;26.16;61.82
66576;SHT31;53428;47.686;16.584;2023-07-09T07:56:03;26.37;61.18
66576;SHT31;53428;47.686;16.584;2023-07-09T08:01:02;26.69;60.84
66576;SHT31;53428;47.686;16.584;2023-07-09T08:06:02;26.68;60.57
66576;SHT31;53428;47.686;16.584;2023-07-09T08:11:03;26.89;60.83
66576;SHT31;53428;47.686;16.584;2023-07-09T08:16:04;26.98;61.12
66576;SHT31;53428;47.686;16.584;2023-07-09T08:21:04;27.12;60.78
66576;SHT31;53428;47.686;16.584;2023-07-09T08:26:03;27.26;62.85
66576;SHT31;53428;47.686;16.584;2023-07-09T08:31:03;27.65;61.67
66576;SHT31;53428;47.686;16.584;2023-07-09T08:36:03;27.58;61.38
66576;SHT31;53428;47.686;16.584;2023-07-09T08:46:24;28.33;60.28
66576;SHT31;53428;47.686;16.584;2023-07-09T08:51:32;28.08;60.83
66576;SHT31;53428;47.686;16.584;2023-07-09T08:56:34;28.73;60.09
66576;SHT31;53428;47.686;16.584;2023-07-09T09:01:47;28.70;60.11
66576;SHT31;53428;47.686;16.584;2023-07-09T09:06:56;29.22;59.14
66576;SHT31;53428;47.686;16.584;2023-07-09T09:17:15;29.42;57.76
66576;SHT31;53428;47.686;16.584;2023-07-09T09:22:20;29.34;57.50
66576;SHT31;53428;47.686;16.584;2023-07-09T09:27:22;29.44;57.24
66576;SHT31;53428;47.686;16.584;2023-07-09T09:32:28;29.80;56.92
66576;SHT31;53428;47.686;16.584;2023-07-09T09:37:30;29.82;56.55
66576;SHT31;53428;47.686;16.584;2023-07-09T09:42:30;30.00;55.86
66576;SHT31;53428;47.686;16.584;2023-07-09T09:47:29;29.67;53.28
66576;SHT31;53428;47.686;16.584;2023-07-09T09:52:31;30.17;54.61
66576;SHT31;53428;47.686;16.584;2023-07-09T09:57:32;30.48;54.39
66576;SHT31;53428;47.686;16.584;2023-07-09T10:02:38;30.00;54.05
66576;SHT31;53428;47.686;16.584;2023-07-09T10:07:47;31.26;52.30
66576;SHT31;53428;47.686;16.584;2023-07-09T10:12:56;31.33;52.12
66576;SHT31;53428;47.686;16.584;2023-07-09T10:39:02;31.38;51.54
66576;SHT31;53428;47.686;16.584;2023-07-09T10:49:14;33.36;47.12
66576;SHT31;53428;47.686;16.584;2023-07-09T10:59:36;33.56;46.51
66576;SHT31;53428;47.686;16.584;2023-07-09T11:04:44;34.78;44.33
66576;SHT31;53428;47.686;16.584;2023-07-09T11:09:47;34.47;42.05
66576;SHT31;53428;47.686;16.584;2023-07-09T11:15:02;33.49;42.17
66576;SHT31;53428;47.686;16.584;2023-07-09T11:20:08;34.58;41.41
66576;SHT31;53428;47.686;16.584;2023-07-09T11:25:15;34.28;41.08
66576;SHT31;53428;47.686;16.584;2023-07-09T11:30:27;35.23;40.76
66576;SHT31;53428;47.686;16.584;2023-07-09T11:35:29;33.92;41.45
66576;SHT31;53428;47.686;16.584;2023-07-09T11:40:53;35.89;39.91
66576;SHT31;53428;47.686;16.584;2023-07-09T11:45:53;36.55;39.12
66576;SHT31;53428;47.686;16.584;2023-07-09T11:50:54;35.89;37.62
66576;SHT31;53428;47.686;16.584;2023-07-09T11:55:54;35.12;39.19
66576;SHT31;53428;47.686;16.584;2023-07-09T12:00:58;35.61;38.87
66576;SHT31;53428;47.686;16.584;2023-07-09T12:06:02;34.74;38.48
66576;SHT31;53428;47.686;16.584;2023-07-09T12:11:03;37.04;36.63
66576;SHT31;53428;47.686;16.584;2023-07-09T12:16:03;36.09;36.82
66576;SHT31;53428;47.686;16.584;2023-07-09T12:21:02;36.21;36.28
66576;SHT31;53428;47.686;16.584;2023-07-09T12:26:03;35.74;36.61
66576;SHT31;53428;47.686;16.584;2023-07-09T12:31:03;35.95;36.14
66576;SHT31;53428;47.686;16.584;2023-07-09T12:36:05;35.98;35.24
66576;SHT31;53428;47.686;16.584;2023-07-09T12:41:05;37.08;33.59
66576;SHT31;53428;47.686;16.584;2023-07-09T12:46:05;36.50;33.47
66576;SHT31;53428;47.686;16.584;2023-07-09T12:51:08;37.96;32.53
66576;SHT31;53428;47.686;16.584;2023-07-09T12:56:13;38.43;32.05
66576;SHT31;53428;47.686;16.584;2023-07-09T13:01:17;38.37;31.86
66576;SHT31;53428;47.686;16.584;2023-07-09T13:06:34;37.39;33.54
66576;SHT31;53428;47.686;16.584;2023-07-09T13:11:35;35.74;36.25
66576;SHT31;53428;47.686;16.584;2023-07-09T13:16:39;36.53;35.46
66576;SHT31;53428;47.686;16.584;2023-07-09T13:21:40;36.57;35.19
66576;SHT31;53428;47.686;16.584;2023-07-09T13:26:39;35.98;36.12
66576;SHT31;53428;47.686;16.584;2023-07-09T13:31:38;38.15;33.67
66576;SHT31;53428;47.686;16.584;2023-07-09T13:36:38;38.45;33.70
66576;SHT31;53428;47.686;16.584;2023-07-09T13:41:38;36.97;36.07
66576;SHT31;53428;47.686;16.584;2023-07-09T13:46:37;38.19;33.15
66576;SHT31;53428;47.686;16.584;2023-07-09T13:51:37;38.86;33.17
66576;SHT31;53428;47.686;16.584;2023-07-09T13:56:36;37.79;34.18
66576;SHT31;53428;47.686;16.584;2023-07-09T14:01:36;39.87;32.24
66576;SHT31;53428;47.686;16.584;2023-07-09T14:06:35;37.62;34.86
66576;SHT31;53428;47.686;16.584;2023-07-09T14:11:34;37.20;34.82
66576;SHT31;53428;47.686;16.584;2023-07-09T14:16:35;39.95;32.21
66576;SHT31;53428;47.686;16.584;2023-07-09T14:21:35;37.01;35.11
66576;SHT31;53428;47.686;16.584;2023-07-09T14:26:34;38.10;34.59
66576;SHT31;53428;47.686;16.584;2023-07-09T14:31:33;38.64;33.64
66576;SHT31;53428;47.686;16.584;2023-07-09T14:36:33;37.25;35.71
66576;SHT31;53428;47.686;16.584;2023-07-09T14:41:33;38.78;34.03
66576;SHT31;53428;47.686;16.584;2023-07-09T14:46:32;38.36;34.64
66576;SHT31;53428;47.686;16.584;2023-07-09T14:51:31;37.70;34.91
66576;SHT31;53428;47.686;16.584;2023-07-09T14:56:31;36.43;36.48
66576;SHT31;53428;47.686;16.584;2023-07-09T15:01:30;38.19;34.37
66576;SHT31;53428;47.686;16.584;2023-07-09T15:06:29;38.64;34.52
66576;SHT31;53428;47.686;16.584;2023-07-09T15:11:28;38.88;33.83
66576;SHT31;53428;47.686;16.584;2023-07-09T15:16:28;38.05;34.47
66576;SHT31;53428;47.686;16.584;2023-07-09T15:21:27;38.64;33.38
66576;SHT31;53428;47.686;16.584;2023-07-09T15:26:27;36.28;36.07
66576;SHT31;53428;47.686;16.584;2023-07-09T15:31:26;39.83;32.54
66576;SHT31;53428;47.686;16.584;2023-07-09T15:36:25;37.78;34.82
66576;SHT31;53428;47.686;16.584;2023-07-09T15:41:24;36.11;36.06
66576;SHT31;53428;47.686;16.584;2023-07-09T15:46:24;38.41;34.15
66576;SHT31;53428;47.686;16.584;2023-07-09T15:51:24;37.39;35.03
66576;SHT31;53428;47.686;16.584;2023-07-09T15:56:29;39.05;33.25
66576;SHT31;53428;47.686;16.584;2023-07-09T16:01:31;40.48;31.75
66576;SHT31;53428;47.686;16.584;2023-07-09T16:06:30;40.22;32.39
66576;SHT31;53428;47.686;16.584;2023-07-09T16:11:30;37.38;34.71
66576;SHT31;53428;47.686;16.584;2023-07-09T16:16:30;36.46;35.92
66576;SHT31;53428;47.686;16.584;2023-07-09T16:21:31;36.40;35.19
66576;SHT31;53428;47.686;16.584;2023-07-09T16:26:31;38.16;33.85
66576;SHT31;53428;47.686;16.584;2023-07-09T16:31:31;37.89;33.91
66576;SHT31;53428;47.686;16.584;2023-07-09T16:36:30;35.97;36.19
66576;SHT31;53428;47.686;16.584;2023-07-09T16:41:29;36.69;35.79
66576;SHT31;53428;47.686;16.584;2023-07-09T16:46:29;38.28;34.08
66576;SHT31;53428;47.686;16.584;2023-07-09T16:51:28;38.16;34.37
66576;SHT31;53428;47.686;16.584;2023-07-09T16:56:27;37.88;34.48
66576;SHT31;53428;47.686;16.584;2023-07-09T17:01:26;37.49;35.11
66576;SHT31;53428;47.686;16.584;2023-07-09T17:06:26;36.63;35.77
66576;SHT31;53428;47.686;16.584;2023-07-09T17:11:25;36.69;35.78
66576;SHT31;53428;47.686;16.584;2023-07-09T17:16:24;37.25;35.13
66576;SHT31;53428;47.686;16.584;2023-07-09T17:21:24;36.40;36.52
66576;SHT31;53428;47.686;16.584;2023-07-09T17:26:23;36.49;35.83
66576;SHT31;53428;47.686;16.584;2023-07-09T17:31:22;35.84;36.72
66576;SHT31;53428;47.686;16.584;2023-07-09T17:36:21;36.12;36.53
66576;SHT31;53428;47.686;16.584;2023-07-09T17:41:23;34.57;40.01
66576;SHT31;53428;47.686;16.584;2023-07-09T17:46:23;32.61;42.73
66576;SHT31;53428;47.686;16.584;2023-07-09T17:51:22;31.53;44.37
66576;SHT31;53428;47.686;16.584;2023-07-09T17:56:22;30.90;45.86
66576;SHT31;53428;47.686;16.584;2023-07-09T18:01:23;30.31;47.07
66576;SHT31;53428;47.686;16.584;2023-07-09T18:06:23;30.03;47.72
66576;SHT31;53428;47.686;16.584;2023-07-09T18:11:27;29.80;47.88
66576;SHT31;53428;47.686;16.584;2023-07-09T18:16:26;29.46;48.16
66576;SHT31;53428;47.686;16.584;2023-07-09T18:21:26;29.10;48.97
66576;SHT31;53428;47.686;16.584;2023-07-09T18:26:25;29.03;48.55
66576;SHT31;53428;47.686;16.584;2023-07-09T18:31:25;28.74;48.70
66576;SHT31;53428;47.686;16.584;2023-07-09T18:36:24;28.52;48.60
66576;SHT31;53428;47.686;16.584;2023-07-09T18:41:24;28.23;49.51
66576;SHT31;53428;47.686;16.584;2023-07-09T18:46:25;28.05;49.70
66576;SHT31;53428;47.686;16.584;2023-07-09T18:51:24;27.91;50.11
66576;SHT31;53428;47.686;16.584;2023-07-09T18:56:23;27.78;50.60
66576;SHT31;53428;47.686;16.584;2023-07-09T19:01:23;27.71;50.65
66576;SHT31;53428;47.686;16.584;2023-07-09T19:06:22;27.46;50.85
66576;SHT31;53428;47.686;16.584;2023-07-09T19:11:21;27.34;50.90
66576;SHT31;53428;47.686;16.584;2023-07-09T19:16:24;27.30;50.70
66576;SHT31;53428;47.686;16.584;2023-07-09T19:21:27;27.17;50.58
66576;SHT31;53428;47.686;16.584;2023-07-09T19:26:27;27.05;50.89
66576;SHT31;53428;47.686;16.584;2023-07-09T19:31:26;27.30;50.83
66576;SHT31;53428;47.686;16.584;2023-07-09T19:36:26;27.42;50.14
66576;SHT31;53428;47.686;16.584;2023-07-09T19:41:25;27.44;49.94
66576;SHT31;53428;47.686;16.584;2023-07-09T19:46:25;27.57;49.47
66576;SHT31;53428;47.686;16.584;2023-07-09T19:51:25;27.40;49.60
66576;SHT31;53428;47.686;16.584;2023-07-09T19:56:25;27.60;49.13
66576;SHT31;53428;47.686;16.584;2023-07-09T20:01:25;27.44;49.42
66576;SHT31;53428;47.686;16.584;2023-07-09T20:06:25;27.36;50.11
66576;SHT31;53428;47.686;16.584;2023-07-09T20:11:25;27.36;50.38
66576;SHT31;53428;47.686;16.584;2023-07-09T20:16:27;27.32;50.50
66576;SHT31;53428;47.686;16.584;2023-07-09T20:21:33;27.36;50.02
66576;SHT31;53428;47.686;16.584;2023-07-09T20:26:32;27.15;50.39
66576;SHT31;53428;47.686;16.584;2023-07-09T20:31:32;27.15;50.39
66576;SHT31;53428;47.686;16.584;2023-07-09T20:36:32;27.16;50.45
66576;SHT31;53428;47.686;16.584;2023-07-09T20:41:31;27.10;50.12
66576;SHT31;53428;47.686;16.584;2023-07-09T20:46:31;27.12;50.09
66576;SHT31;53428;47.686;16.584;2023-07-09T20:51:30;27.20;49.82
66576;SHT31;53428;47.686;16.584;2023-07-09T20:56:30;27.25;49.80
66576;SHT31;53428;47.686;16.584;2023-07-09T21:01:30;27.33;49.46
66576;SHT31;53428;47.686;16.584;2023-07-09T21:06:29;27.19;49.75
66576;SHT31;53428;47.686;16.584;2023-07-09T21:11:28;27.05;49.98
66576;SHT31;53428;47.686;16.584;2023-07-09T21:16:27;26.99;49.95
66576;SHT31;53428;47.686;16.584;2023-07-09T21:21:27;26.64;51.12
66576;SHT31;53428;47.686;16.584;2023-07-09T21:26:26;26.21;53.44
66576;SHT31;53428;47.686;16.584;2023-07-09T21:31:25;25.52;55.77
66576;SHT31;53428;47.686;16.584;2023-07-09T21:36:25;24.97;57.69
66576;SHT31;53428;47.686;16.584;2023-07-09T21:41:24;24.63;58.99
66576;SHT31;53428;47.686;16.584;2023-07-09T21:46:27;24.58;59.24
66576;SHT31;53428;47.686;16.584;2023-07-09T21:51:28;24.53;59.29
66576;SHT31;53428;47.686;16.584;2023-07-09T21:56:27;24.49;59.19
66576;SHT31;53428;47.686;16.584;2023-07-09T22:01:27;24.38;60.20
66576;SHT31;53428;47.686;16.584;2023-07-09T22:06:26;24.04;60.87
66576;SHT31;53428;47.686;16.584;2023-07-09T22:11:26;23.97;61.54
66576;SHT31;53428;47.686;16.584;2023-07-09T22:16:26;23.88;61.47
66576;SHT31;53428;47.686;16.584;2023-07-09T22:21:25;23.71;61.96
66576;SHT31;53428;47.686;16.584;2023-07-09T22:26:24;23.66;62.36
66576;SHT31;53428;47.686;16.584;2023-07-09T22:31:24;23.57;62.83
66576;SHT31;53428;47.686;16.584;2023-07-09T22:36:23;23.46;63.06
66576;SHT31;53428;47.686;16.584;2023-07-09T22:41:23;23.27;62.89
66576;SHT31;53428;47.686;16.584;2023-07-09T22:46:22;23.22;63.32
66576;SHT31;53428;47.686;16.584;2023-07-09T22:51:22;23.12;63.51
66576;SHT31;53428;47.686;16.584;2023-07-09T22:56:21;23.05;63.46
66576;SHT31;53428;47.686;16.584;2023-07-09T23:01:21;23.14;63.45
66576;SHT31;53428;47.686;16.584;2023-07-09T23:06:23;23.08;64.05
66576;SHT31;53428;47.686;16.584;2023-07-09T23:11:43;22.92;65.20
66576;SHT31;53428;47.686;16.584;2023-07-09T23:16:43;22.85;65.76
66576;SHT31;53428;47.686;16.584;2023-07-09T23:21:43;22.71;66.08
66576;SHT31;53428;47.686;16.584;2023-07-09T23:26:49;22.75;66.81
66576;SHT31;53428;47.686;16.584;2023-07-09T23:31:49;22.72;66.79
66576;SHT31;53428;47.686;16.584;2023-07-09T23:36:49;22.58;67.38
66576;SHT31;53428;47.686;16.584;2023-07-09T23:41:48;22.61;67.75
66576;SHT31;53428;47.686;16.584;2023-07-09T23:46:50;22.51;67.65
66576;SHT31;53428;47.686;16.584;2023-07-09T23:51:51;22.46;68.09
66576;SHT31;53428;47.686;16.584;2023-07-09T23:56:51;22.46;68.36
